Time;durP1;ratioP1;P1;durP2;ratioP2;P2;SDS_P1;SDS_P2;PMS_P1;PMS_P2;Temp;Humidity;BMP_temperature;BMP_pressure;BME280_temperature;BME280_humidity;BME280_pressure;Samples;Min_cycle;Max_cycle;Signal;HPM_P1;HPM_P2
2022/07/11 00:01:29;;;;;;;13.45;4.00;;;;;;;17.91;86.50;102577.59;4985792;28;20062;-63
2022/07/11 00:03:54;;;;;;;14.48;3.50;;;;;;;17.96;86.12;102574.75;4990146;28;20085;-63
2022/07/11 00:06:19;;;;;;;14.73;4.72;;;;;;;17.93;86.56;102570.44;5008241;28;20481;-63
2022/07/11 00:08:45;;;;;;;14.65;4.35;;;;;;;18.00;86.08;102562.19;5008510;28;20057;-63
2022/07/11 00:11:10;;;;;;;13.60;4.28;;;;;;;17.98;86.04;102567.59;5008623;28;20030;-63
2022/07/11 00:13:35;;;;;;;14.05;4.50;;;;;;;18.00;86.03;102564.88;5009213;28;20041;-63
2022/07/11 00:16:00;;;;;;;11.57;3.92;;;;;;;17.98;86.13;102572.03;5009494;28;20432;-62
2022/07/11 00:18:26;;;;;;;9.93;3.83;;;;;;;17.99;86.45;102574.66;5008311;28;20512;-63
2022/07/11 00:20:51;;;;;;;16.30;4.13;;;;;;;18.05;85.63;102565.53;5008518;28;20053;-63
2022/07/11 00:23:16;;;;;;;17.92;4.63;;;;;;;18.00;85.88;102570.19;5008787;28;20500;-62
2022/07/11 00:25:42;;;;;;;16.50;4.28;;;;;;;18.04;85.81;102567.38;5008165;28;20404;-63
2022/07/11 00:28:07;;;;;;;8.90;3.78;;;;;;;18.08;85.70;102562.75;5008917;28;20473;-62
2022/07/11 00:30:33;;;;;;;12.57;4.72;;;;;;;18.13;85.51;102560.84;5009157;28;20026;-63
2022/07/11 00:32:58;;;;;;;12.75;5.22;;;;;;;18.16;84.99;102562.50;5008505;28;20208;-62
2022/07/11 00:35:23;;;;;;;15.23;6.15;;;;;;;18.18;85.00;102564.19;5018778;28;20478;-62
2022/07/11 00:37:49;;;;;;;21.55;6.15;;;;;;;18.15;85.63;102558.97;5028680;28;20353;-62
2022/07/11 00:40:14;;;;;;;13.60;5.80;;;;;;;18.26;84.89;102555.88;5027267;28;20068;-62
2022/07/11 00:42:39;;;;;;;16.50;6.03;;;;;;;18.19;85.32;102554.38;5028294;28;20056;-64
2022/07/11 00:45:05;;;;;;;11.80;6.15;;;;;;;18.21;85.36;102552.50;5027217;28;20033;-63
2022/07/11 00:47:30;;;;;;;16.58;6.53;;;;;;;18.16;85.36;102554.50;5027910;28;20411;-62
2022/07/11 00:49:56;;;;;;;14.18;6.80;;;;;;;18.14;85.51;102549.22;5026583;28;20514;-63
2022/07/11 00:52:21;;;;;;;14.25;7.65;;;;;;;18.22;85.12;102551.59;5026798;28;20392;-63
2022/07/11 00:54:47;;;;;;;20.38;7.65;;;;;;;18.27;84.82;102552.28;5026839;28;20026;-62
2022/07/11 00:57:13;;;;;;;12.95;7.30;;;;;;;18.33;84.41;102544.97;5028004;28;20044;-63
2022/07/11 00:59:38;;;;;;;12.95;7.68;;;;;;;18.34;84.26;102549.38;5019581;28;20477;-63
2022/07/11 01:02:04;;;;;;;21.98;8.63;;;;;;;18.24;84.64;102544.38;5007340;28;20033;-62
2022/07/11 01:04:29;;;;;;;15.32;8.77;;;;;;;18.31;84.40;102545.88;5006521;28;20029;-64
2022/07/11 01:06:55;;;;;;;12.32;7.13;;;;;;;18.33;84.18;102545.81;5008258;28;20026;-63
2022/07/11 01:09:20;;;;;;;18.63;9.40;;;;;;;18.33;84.19;102547.63;5007907;28;20030;-64
2022/07/11 01:11:45;;;;;;;19.13;9.55;;;;;;;18.30;83.86;102557.50;5006068;28;20037;-63
2022/07/11 01:14:11;;;;;;;18.27;10.45;;;;;;;18.38;83.52;102556.31;5004828;28;20042;-63
2022/07/11 01:16:36;;;;;;;18.15;10.90;;;;;;;18.31;84.07;102558.38;5007898;28;20766;-64
2022/07/11 01:19:01;;;;;;;24.55;13.65;;;;;;;18.39;83.69;102550.91;5007753;28;20381;-63
2022/07/11 01:21:29;;;;;;;20.52;12.65;;;;;;;18.42;83.54;102544.56;5007518;28;20045;-62
2022/07/11 01:23:56;;;;;;;21.55;13.50;;;;;;;18.52;83.15;102550.44;5007888;28;20065;-62
2022/07/11 01:26:23;;;;;;;17.48;12.10;;;;;;;18.59;82.60;102551.91;5020642;28;20097;-62
2022/07/11 01:28:49;;;;;;;13.77;11.25;;;;;;;18.54;82.79;102556.56;5027567;28;20754;-64
2022/07/11 01:31:15;;;;;;;21.70;13.30;;;;;;;18.55;82.33;102553.81;5025294;28;20652;-62
2022/07/11 01:33:40;;;;;;;17.75;13.43;;;;;;;18.51;83.07;102562.06;5026941;28;20069;-62
2022/07/11 01:36:06;;;;;;;20.75;15.07;;;;;;;18.49;83.31;102569.25;5027783;28;20441;-62
2022/07/11 01:38:31;;;;;;;20.33;14.50;;;;;;;18.43;83.22;102557.84;5027398;28;20123;-63
2022/07/11 01:40:57;;;;;;;25.75;14.68;;;;;;;18.45;83.69;102557.81;5016107;28;20044;-63
2022/07/11 01:43:22;;;;;;;21.40;12.65;;;;;;;18.60;83.04;102552.78;5007257;28;20030;-61
2022/07/11 01:45:55;;;;;;;16.08;10.93;;;;;;;18.59;82.64;102551.91;5006598;28;20037;-63
2022/07/11 01:48:21;;;;;;;20.95;14.50;;;;;;;18.55;83.21;102553.81;5006701;28;20053;-64
2022/07/11 01:50:47;;;;;;;16.95;12.15;;;;;;;18.61;82.81;102549.19;5007218;28;20057;-63
2022/07/11 01:53:13;;;;;;;19.40;13.10;;;;;;;18.63;82.54;102550.84;5007265;28;20037;-64
2022/07/11 01:55:38;;;;;;;16.88;12.45;;;;;;;18.67;82.84;102546.28;5006580;28;20018;-63
2022/07/11 01:58:03;;;;;;;20.17;15.27;;;;;;;18.56;82.95;102552.03;5007590;28;20079;-63
2022/07/11 02:00:29;;;;;;;21.67;13.43;;;;;;;18.60;83.35;102542.13;5006018;28;20030;-62
2022/07/11 02:02:54;;;;;;;19.73;14.57;;;;;;;18.56;83.37;102546.69;5006784;28;20021;-62
2022/07/11 02:05:19;;;;;;;23.05;15.40;;;;;;;18.62;82.73;102540.22;5005524;28;20060;-62
2022/07/11 02:10:29;;;;;;;27.58;15.30;;;;;;;18.63;83.09;102542.84;5006409;28;20063;-63
2022/07/11 02:12:58;;;;;;;22.33;15.05;;;;;;;18.64;83.04;102547.28;5007250;28;20050;-64
2022/07/11 02:15:24;;;;;;;29.25;17.55;;;;;;;18.63;83.15;102540.16;5005815;28;20117;-63
2022/07/11 02:17:51;;;;;;;26.15;16.77;;;;;;;18.59;83.71;102545.69;5006212;28;20137;-64
2022/07/11 02:20:17;;;;;;;22.23;17.27;;;;;;;18.65;83.28;102532.09;5006051;28;20034;-63
2022/07/11 02:22:42;;;;;;;22.05;13.93;;;;;;;18.71;82.59;102534.53;5006350;28;20097;-63
2022/07/11 02:25:08;;;;;;;27.63;16.60;;;;;;;18.69;83.05;102537.25;5005785;28;20033;-63
2022/07/11 02:27:34;;;;;;;23.58;17.05;;;;;;;18.69;82.69;102534.59;5006786;28;20042;-63
2022/07/11 02:29:59;;;;;;;25.58;16.42;;;;;;;18.65;83.15;102529.44;5006673;28;20109;-64
2022/07/11 02:32:24;;;;;;;20.85;15.00;;;;;;;18.68;83.10;102530.19;4997162;28;20034;-64
2022/07/11 02:34:49;;;;;;;18.77;14.35;;;;;;;18.79;82.65;102526.19;5019125;28;20030;-63
2022/07/11 02:37:15;;;;;;;23.60;15.43;;;;;;;18.71;82.55;102534.53;5016268;28;20116;-62
2022/07/11 02:39:40;;;;;;;18.67;13.50;;;;;;;18.76;82.47;102534.34;5005481;28;20108;-63
2022/07/11 02:42:05;;;;;;;27.42;14.82;;;;;;;18.79;82.51;102542.22;5005292;28;20112;-64
2022/07/11 02:44:31;;;;;;;20.40;12.77;;;;;;;18.71;82.95;102533.66;5006047;28;20085;-63
2022/07/11 02:46:56;;;;;;;17.20;12.10;;;;;;;18.77;82.14;102528.06;5005755;28;20025;-63
2022/07/11 02:49:22;;;;;;;16.40;8.88;;;;;;;18.75;82.25;102535.28;5015338;28;20026;-61
2022/07/11 02:51:47;;;;;;;14.10;7.80;;;;;;;18.63;82.17;102536.66;5025036;28;20052;-64
2022/07/11 02:54:12;;;;;;;14.43;8.38;;;;;;;18.65;82.03;102534.78;5025171;28;20025;-64
2022/07/11 02:56:38;;;;;;;12.32;9.35;;;;;;;18.67;82.04;102540.94;5024648;28;20031;-63
2022/07/11 02:59:03;;;;;;;12.50;8.50;;;;;;;18.74;81.75;102525.50;5026278;28;20032;-63
2022/07/11 03:01:28;;;;;;;9.02;8.10;;;;;;;18.61;82.22;102527.84;5025644;28;20033;-64
2022/07/11 03:03:54;;;;;;;15.30;8.07;;;;;;;18.59;82.92;102525.22;5024952;28;20041;-62
2022/07/11 03:06:19;;;;;;;13.88;8.75;;;;;;;18.51;82.91;102528.19;5024333;28;20025;-65
2022/07/11 03:08:44;;;;;;;10.95;7.85;;;;;;;18.58;83.01;102530.63;5006425;28;20018;-63
2022/07/11 03:11:09;;;;;;;10.75;7.07;;;;;;;18.64;82.79;102533.94;5005412;28;20374;-62
2022/07/11 03:13:35;;;;;;;13.63;7.93;;;;;;;18.64;82.58;102536.59;5005907;28;20453;-62
2022/07/11 03:16:01;;;;;;;11.13;7.60;;;;;;;18.66;82.11;102532.03;5005855;28;20459;-63
2022/07/11 03:18:27;;;;;;;10.23;8.07;;;;;;;18.53;82.96;102536.16;5004109;28;22697;-62
2022/07/11 03:20:53;;;;;;;12.05;7.90;;;;;;;18.65;82.69;102538.31;5005919;28;20030;-63
2022/07/11 03:23:18;;;;;;;8.50;6.75;;;;;;;18.73;82.33;102535.34;5004906;28;20072;-61
2022/07/11 03:25:44;;;;;;;14.70;8.07;;;;;;;18.82;81.99;102536.75;5005910;28;20034;-62
2022/07/11 03:28:09;;;;;;;10.82;8.23;;;;;;;18.80;81.71;102535.94;5005707;28;20026;-63
2022/07/11 03:30:34;;;;;;;10.85;6.75;;;;;;;18.75;82.57;102545.97;5006054;28;20519;-62
2022/07/11 03:33:00;;;;;;;10.30;6.25;;;;;;;18.78;82.22;102543.16;5004603;28;20118;-64
2022/07/11 03:35:40;;;;;;;9.32;6.55;;;;;;;18.70;82.49;102540.81;5005367;28;20026;-64
2022/07/11 03:38:06;;;;;;;9.65;6.50;;;;;;;18.70;82.80;102535.47;5008113;28;20037;-62
2022/07/11 03:40:31;;;;;;;10.32;7.22;;;;;;;18.69;83.10;102539.94;4991915;28;20061;-63
2022/07/11 03:42:56;;;;;;;8.02;6.88;;;;;;;18.64;83.16;102541.94;5009915;28;20057;-62
2022/07/11 03:45:21;;;;;;;11.15;6.65;;;;;;;18.63;83.47;102536.66;5009296;28;20038;-63
2022/07/11 03:47:50;;;;;;;10.00;7.00;;;;;;;18.61;83.58;102536.72;5017798;28;20053;-63
2022/07/11 03:50:16;;;;;;;9.63;5.70;;;;;;;18.67;83.39;102528.44;5029182;28;20036;-63
2022/07/11 03:52:41;;;;;;;7.30;5.47;;;;;;;18.68;83.47;102531.97;5028416;28;20017;-64
2022/07/11 03:55:07;;;;;;;6.35;5.20;;;;;;;18.68;83.13;102540.00;5029536;28;20032;-62
2022/07/11 03:57:39;;;;;;;9.90;5.43;;;;;;;18.56;84.09;102536.91;5029267;28;20103;-64
2022/07/11 04:00:06;;;;;;;9.95;5.15;;;;;;;18.60;84.09;102534.97;5029503;28;20033;-63
2022/07/11 04:02:32;;;;;;;7.85;4.43;;;;;;;18.61;83.73;102543.84;5027341;28;20029;-63
2022/07/11 04:04:57;;;;;;;9.82;5.70;;;;;;;18.61;84.38;102541.19;5029313;28;20500;-63
2022/07/11 04:07:23;;;;;;;8.57;6.07;;;;;;;18.55;84.92;102536.97;5017389;28;20025;-64
2022/07/11 04:09:48;;;;;;;9.60;6.35;;;;;;;18.54;85.18;102543.22;5024156;28;20028;-62
2022/07/11 04:12:13;;;;;;;10.40;5.00;;;;;;;18.62;84.46;102542.91;5027622;28;20036;-63
2022/07/11 04:14:39;;;;;;;5.38;3.58;;;;;;;18.72;84.09;102538.06;5028479;28;20025;-62
2022/07/11 04:17:04;;;;;;;5.68;3.40;;;;;;;18.80;83.72;102543.94;5028695;28;20060;-61
2022/07/11 04:19:29;;;;;;;11.18;3.88;;;;;;;18.75;83.65;102545.97;5028926;28;20022;-62
2022/07/11 04:21:55;;;;;;;6.07;2.72;;;;;;;18.82;83.32;102550.94;5027794;28;20029;-63
2022/07/11 04:24:21;;;;;;;6.63;3.35;;;;;;;18.85;83.01;102541.09;5023325;28;20524;-62
2022/07/11 04:26:46;;;;;;;6.50;3.30;;;;;;;18.86;83.24;102543.69;5008301;28;20038;-64
2022/07/11 04:29:11;;;;;;;3.95;2.50;;;;;;;18.88;82.77;102539.16;5008723;28;20026;-64
2022/07/11 04:31:37;;;;;;;3.88;2.40;;;;;;;18.85;83.32;102546.44;5008380;28;20018;-65
2022/07/11 04:34:02;;;;;;;4.95;2.30;;;;;;;18.83;83.14;102543.81;5007936;28;20141;-62
2022/07/11 04:36:27;;;;;;;2.90;1.83;;;;;;;18.91;82.68;102535.50;5007218;28;20118;-62
2022/07/11 04:38:53;;;;;;;3.90;2.00;;;;;;;18.93;82.10;102531.81;5007709;28;20068;-63
2022/07/11 04:41:18;;;;;;;2.60;1.80;;;;;;;18.90;82.12;102529.28;4999808;28;20117;-65
2022/07/11 04:43:44;;;;;;;6.25;1.85;;;;;;;18.89;82.47;102532.00;5007329;28;20060;-62
2022/07/11 04:46:09;;;;;;;3.42;1.80;;;;;;;18.91;82.11;102531.00;5007965;28;20551;-63
2022/07/11 04:48:37;;;;;;;4.72;2.28;;;;;;;18.86;82.03;102535.69;5009788;28;20792;-63
2022/07/11 04:51:04;;;;;;;3.40;1.77;;;;;;;18.90;82.28;102539.09;5018542;28;20013;-64
2022/07/11 04:53:29;;;;;;;9.85;2.17;;;;;;;18.88;82.42;102536.50;5013488;28;20100;-63
2022/07/11 04:55:55;;;;;;;5.43;1.90;;;;;;;18.92;82.11;102538.09;5007232;28;20544;-64
2022/07/11 04:58:20;;;;;;;4.35;1.70;;;;;;;19.04;81.60;102541.16;5007359;28;20034;-64
2022/07/11 05:00:45;;;;;;;2.92;1.73;;;;;;;18.97;82.24;102539.69;5007495;28;20026;-63
2022/07/11 05:03:11;;;;;;;3.17;1.50;;;;;;;19.01;81.89;102546.63;5008355;28;20069;-63
2022/07/11 05:05:36;;;;;;;4.95;1.50;;;;;;;19.02;81.10;102546.56;5024547;28;20054;-62
2022/07/11 05:08:01;;;;;;;6.18;1.85;;;;;;;18.88;81.72;102546.31;5022138;28;20068;-63
2022/07/11 05:10:26;;;;;;;3.97;1.58;;;;;;;18.98;81.25;102552.13;5024608;28;20037;-63
2022/07/11 05:12:52;;;;;;;5.57;1.30;;;;;;;18.93;81.76;102555.84;5024902;28;20080;-62
2022/07/11 05:15:17;;;;;;;4.93;1.20;;;;;;;18.82;81.99;102560.78;5011043;28;20044;-63
2022/07/11 05:17:42;;;;;;;5.35;1.38;;;;;;;18.88;81.39;102556.97;5023760;28;20021;-63
2022/07/11 05:20:08;;;;;;;4.32;2.03;;;;;;;18.87;81.44;102555.25;5024450;28;20041;-64
2022/07/11 05:22:33;;;;;;;4.50;1.85;;;;;;;18.69;81.72;102560.41;5025922;28;20045;-62
2022/07/11 05:24:59;;;;;;;8.70;2.30;;;;;;;18.85;81.22;102568.66;5026227;28;20067;-63
2022/07/11 05:27:24;;;;;;;4.45;1.90;;;;;;;18.71;82.19;102576.38;5015738;28;20021;-62
2022/07/11 05:29:49;;;;;;;3.55;1.40;;;;;;;18.73;81.98;102577.19;5019791;28;20030;-64
2022/07/11 05:32:15;;;;;;;2.88;1.40;;;;;;;18.71;82.24;102592.38;5018218;28;20029;-65
2022/07/11 05:34:40;;;;;;;2.58;1.30;;;;;;;18.67;82.28;102579.16;5020809;28;20029;-62
2022/07/11 05:37:06;;;;;;;1.67;1.30;;;;;;;18.82;81.62;102582.16;5023463;28;20072;-63
2022/07/11 05:39:31;;;;;;;10.00;2.33;;;;;;;18.69;81.45;102582.63;5017202;28;20488;-61
2022/07/11 05:41:56;;;;;;;2.80;1.10;;;;;;;18.78;81.14;102584.06;5005709;28;20381;-62
2022/07/11 05:44:22;;;;;;;6.43;1.50;;;;;;;18.85;81.07;102589.16;5006441;28;20470;-63
2022/07/11 05:46:47;;;;;;;9.82;2.03;;;;;;;18.82;81.10;102590.16;5005965;28;20128;-61
2022/07/11 05:49:12;;;;;;;5.47;1.60;;;;;;;18.66;81.96;102595.25;5006443;28;20108;-62
2022/07/11 05:51:38;;;;;;;2.35;1.20;;;;;;;18.81;81.51;102589.28;5006623;28;20068;-61
2022/07/11 05:54:04;;;;;;;3.83;1.63;;;;;;;18.86;81.53;102586.44;5006985;28;20072;-63
2022/07/11 05:56:29;;;;;;;3.95;1.52;;;;;;;18.89;81.24;102593.44;5005957;28;20029;-63
2022/07/11 05:58:55;;;;;;;5.45;1.23;;;;;;;18.95;81.23;102590.50;5006476;28;20049;-63
2022/07/11 06:01:22;;;;;;;1.98;1.33;;;;;;;18.89;81.70;102591.63;5006487;28;20025;-63
2022/07/11 06:03:47;;;;;;;8.50;1.80;;;;;;;18.94;80.94;102592.31;5004557;28;20477;-62
2022/07/11 06:06:13;;;;;;;4.68;1.48;;;;;;;19.00;80.85;102593.00;5006269;28;20061;-62
2022/07/11 06:08:41;;;;;;;3.53;1.45;;;;;;;19.02;80.58;102591.13;5005881;28;20109;-62
2022/07/11 06:11:07;;;;;;;1.38;1.10;;;;;;;19.05;80.34;102580.28;5005253;28;20020;-62
2022/07/11 06:13:32;;;;;;;5.53;1.52;;;;;;;19.12;80.32;102579.16;5006785;28;20033;-63
2022/07/11 06:15:58;;;;;;;5.43;1.95;;;;;;;19.26;79.53;102580.38;5007137;28;20105;-64
2022/07/11 06:18:23;;;;;;;4.13;1.38;;;;;;;19.29;79.52;102578.41;5005238;28;20365;-64
2022/07/11 06:20:49;;;;;;;4.97;1.10;;;;;;;19.38;79.15;102574.47;5005159;28;20110;-62
2022/07/11 06:23:14;;;;;;;2.13;0.88;;;;;;;19.43;79.29;102567.13;5004336;28;20056;-62
2022/07/11 06:25:40;;;;;;;3.63;1.38;;;;;;;19.40;78.87;102564.59;5006457;28;20097;-64
2022/07/11 06:28:06;;;;;;;2.38;1.00;;;;;;;19.60;78.70;102568.19;5006877;28;20046;-64
2022/07/11 06:30:31;;;;;;;6.13;1.20;;;;;;;19.46;78.59;102563.44;5006411;28;20363;-64
2022/07/11 06:32:57;;;;;;;2.30;1.20;;;;;;;19.62;77.58;102563.63;4989879;28;20034;-63
2022/07/11 06:35:23;;;;;;;1.95;1.10;;;;;;;19.76;77.49;102564.81;4985788;28;20055;-63
2022/07/11 06:37:48;;;;;;;1.85;1.23;;;;;;;19.74;76.91;102566.69;4986192;28;20030;-65
2022/07/11 06:40:17;;;;;;;1.38;1.15;;;;;;;19.80;76.41;102569.94;4987340;28;20022;-63
2022/07/11 06:42:42;;;;;;;7.18;1.50;;;;;;;19.62;76.92;102568.13;5005427;28;20034;-62
2022/07/11 06:45:08;;;;;;;8.30;1.90;;;;;;;19.63;77.70;102569.84;5005245;28;20113;-63
2022/07/11 06:47:33;;;;;;;2.17;1.35;;;;;;;19.53;77.68;102570.25;4986330;28;20037;-65
2022/07/11 06:49:58;;;;;;;3.92;1.58;;;;;;;19.79;77.00;102570.00;4986027;28;20542;-64
2022/07/11 06:52:24;;;;;;;4.45;1.98;;;;;;;19.83;76.45;102576.94;4985976;28;20015;-63
2022/07/11 06:54:49;;;;;;;3.40;1.63;;;;;;;19.97;76.54;102579.00;4986544;28;20023;-64
2022/07/11 06:57:14;;;;;;;5.60;2.30;;;;;;;20.06;76.38;102583.09;4986076;28;20034;-63
2022/07/11 06:59:40;;;;;;;7.65;2.45;;;;;;;20.23;75.95;102578.75;4987786;28;20018;-64
2022/07/11 07:02:05;;;;;;;4.88;2.35;;;;;;;20.30;75.92;102574.84;5003285;28;20444;-64
2022/07/11 07:04:31;;;;;;;4.43;2.13;;;;;;;20.24;76.03;102577.81;5004249;28;20124;-64
2022/07/11 07:06:56;;;;;;;6.00;2.72;;;;;;;20.41;75.43;102577.84;5016425;28;20040;-64
2022/07/11 07:09:21;;;;;;;4.65;2.17;;;;;;;20.36;75.38;102579.03;5008007;28;20021;-63
2022/07/11 07:11:47;;;;;;;3.97;2.88;;;;;;;20.44;74.63;102582.22;5004109;28;20497;-63
2022/07/11 07:14:12;;;;;;;4.47;3.95;;;;;;;20.35;74.46;102590.69;5004497;28;20443;-65
2022/07/11 07:16:39;;;;;;;6.88;4.97;;;;;;;20.37;74.36;102592.34;5004319;28;20361;-64
2022/07/11 07:19:04;;;;;;;3.85;3.45;;;;;;;20.64;73.05;102591.94;5006045;28;20037;-63
2022/07/11 07:21:30;;;;;;;4.35;3.13;;;;;;;20.85;72.81;102594.50;5002951;28;20022;-64
2022/07/11 07:23:55;;;;;;;6.25;4.03;;;;;;;20.84;72.60;102595.44;5004748;28;20587;-65
2022/07/11 07:26:21;;;;;;;5.40;3.85;;;;;;;20.83;72.13;102593.72;5004392;28;20422;-64
2022/07/11 07:28:46;;;;;;;9.80;5.15;;;;;;;20.56;73.26;102591.47;5004723;28;20050;-63
2022/07/11 07:31:11;;;;;;;5.80;5.18;;;;;;;20.90;71.54;102588.94;5005126;28;20049;-65
2022/07/11 07:33:37;;;;;;;6.22;5.13;;;;;;;20.81;73.50;102590.25;5004419;28;20623;-63
2022/07/11 07:36:03;;;;;;;5.97;5.35;;;;;;;20.72;72.54;102596.91;5005598;28;20022;-64
2022/07/11 07:38:28;;;;;;;6.05;4.95;;;;;;;20.83;73.33;102599.06;5004009;28;20032;-64
2022/07/11 07:40:54;;;;;;;6.88;4.75;;;;;;;20.88;72.58;102599.69;5004697;28;20384;-64
2022/07/11 07:43:19;;;;;;;4.30;3.90;;;;;;;21.06;71.82;102595.25;4988467;28;20466;-65
2022/07/11 07:45:45;;;;;;;6.07;4.57;;;;;;;21.03;71.47;102600.78;4989949;28;20034;-63
2022/07/11 07:48:10;;;;;;;6.18;4.90;;;;;;;21.01;71.15;102601.81;5002669;28;20022;-64
2022/07/11 07:50:36;;;;;;;6.40;5.30;;;;;;;20.92;72.25;102603.13;5005580;28;20028;-63
2022/07/11 07:53:01;;;;;;;7.10;4.65;;;;;;;20.74;72.23;102600.38;5010067;28;20100;-64
2022/07/11 07:55:26;;;;;;;6.35;5.70;;;;;;;20.65;72.66;102599.03;5024740;28;20026;-64
2022/07/11 07:57:51;;;;;;;7.72;5.78;;;;;;;20.84;72.95;102592.75;5024721;28;20352;-65
2022/07/11 08:03:08;;;;;;;7.43;6.25;;;;;;;21.44;70.11;102593.34;5024386;28;20113;-63
2022/07/11 08:05:34;;;;;;;9.05;7.53;;;;;;;21.44;70.14;102594.22;5022946;28;20064;-64
2022/07/11 08:08:00;;;;;;;10.10;7.97;;;;;;;21.36;70.15;102596.44;5024758;28;20049;-64
2022/07/11 08:10:25;;;;;;;9.70;7.65;;;;;;;21.09;70.66;102604.94;5016795;28;20109;-64
2022/07/11 08:12:51;;;;;;;9.20;7.22;;;;;;;20.94;71.63;102610.16;5023915;28;20412;-64
2022/07/11 08:15:16;;;;;;;7.80;6.05;;;;;;;21.08;71.82;102608.59;5022998;28;20018;-64
2022/07/11 08:17:41;;;;;;;5.95;4.47;;;;;;;20.82;72.18;102616.06;5022063;28;20525;-63
2022/07/11 08:20:07;;;;;;;5.43;3.90;;;;;;;21.06;71.75;102611.34;5024159;28;20068;-63
2022/07/11 08:22:33;;;;;;;4.53;3.85;;;;;;;21.04;71.78;102617.72;5023469;28;20022;-65
2022/07/11 08:24:58;;;;;;;4.15;3.72;;;;;;;21.23;70.58;102614.09;5026399;28;20064;-63
2022/07/11 08:27:24;;;;;;;5.25;4.75;;;;;;;21.59;68.53;102610.44;5027153;28;20028;-64
2022/07/11 08:29:49;;;;;;;5.18;4.47;;;;;;;21.53;68.70;102608.97;5012300;28;20030;-64
2022/07/11 08:32:14;;;;;;;6.15;5.03;;;;;;;21.65;68.94;102607.44;5005882;28;20050;-63
2022/07/11 08:34:40;;;;;;;5.15;4.57;;;;;;;21.69;69.05;102597.41;5005589;28;20506;-63
2022/07/11 08:37:05;;;;;;;7.97;5.13;;;;;;;21.81;69.05;102601.28;5006829;28;20056;-64
2022/07/11 08:39:30;;;;;;;7.20;6.03;;;;;;;21.39;70.17;102595.41;5006120;28;20496;-65
2022/07/11 08:41:56;;;;;;;8.10;6.95;;;;;;;21.37;70.56;102598.16;5016448;28;20037;-64
2022/07/11 08:44:23;;;;;;;7.60;6.63;;;;;;;21.43;70.05;102613.94;5026761;28;20103;-63
2022/07/11 08:46:49;;;;;;;7.85;6.00;;;;;;;21.71;67.99;102600.88;5025455;28;20112;-63
2022/07/11 08:49:14;;;;;;;7.18;6.38;;;;;;;21.82;69.31;102606.56;5025571;28;20025;-64
2022/07/11 08:51:41;;;;;;;9.43;6.75;;;;;;;22.16;67.79;102606.53;5026932;28;20022;-67
2022/07/11 08:54:06;;;;;;;8.43;6.50;;;;;;;22.45;66.32;102590.59;5026080;28;20061;-64
2022/07/11 08:56:32;;;;;;;7.90;6.38;;;;;;;22.66;65.98;102590.34;5027137;28;20056;-65
2022/07/11 08:59:00;;;;;;;7.50;6.53;;;;;;;22.36;67.23;102588.41;5006598;28;20045;-65
2022/07/11 09:01:31;;;;;;;7.72;6.93;;;;;;;22.01;68.80;102593.97;5004260;28;20025;-65
2022/07/11 09:03:58;;;;;;;9.18;6.30;;;;;;;22.36;66.17;102590.25;5006602;28;20030;-64
2022/07/11 09:06:23;;;;;;;7.70;6.60;;;;;;;22.29;67.39;102584.34;5005151;28;20034;-65
2022/07/11 09:08:48;;;;;;;8.95;6.40;;;;;;;22.38;67.95;102589.22;5005694;28;20034;-65
2022/07/11 09:11:14;;;;;;;9.23;6.07;;;;;;;22.69;66.08;102587.47;5005455;28;20109;-65
2022/07/11 09:13:39;;;;;;;8.95;6.57;;;;;;;22.75;65.73;102582.72;4960839;28;1066896;-64
2022/07/11 09:16:06;;;;;;;6.95;6.18;;;;;;;22.57;66.85;102589.06;4988005;28;20105;-63
2022/07/11 09:18:39;;;;;;;7.45;6.65;;;;;;;22.45;67.34;102585.22;4985792;28;20022;-64
2022/07/11 09:26:47;;;;;;;7.53;5.78;;;;;;;22.73;66.56;102598.94;5006392;28;20040;-64
2022/07/11 09:29:20;;;;;;;9.52;5.80;;;;;;;22.65;66.70;102595.81;5004886;28;20088;-64
2022/07/11 09:31:46;;;;;;;7.32;6.55;;;;;;;22.45;67.70;102590.59;5006317;28;20552;-64
2022/07/11 09:34:14;;;;;;;9.38;6.93;;;;;;;22.37;68.58;102590.19;5004438;28;20122;-65
2022/07/11 09:36:44;;;;;;;8.07;5.90;;;;;;;22.78;67.26;102587.91;5006743;28;20026;-62
2022/07/11 09:39:15;;;;;;;11.68;6.22;;;;;;;22.64;68.26;102589.59;5026441;28;20017;-64
2022/07/11 09:41:41;;;;;;;6.53;5.82;;;;;;;22.75;68.00;102586.25;5016868;28;20030;-64
2022/07/11 09:44:10;;;;;;;7.53;5.00;;;;;;;22.74;66.66;102589.91;5005645;28;20061;-65
2022/07/11 09:46:36;;;;;;;8.60;5.45;;;;;;;23.12;65.22;102585.03;5003282;28;20417;-65
2022/07/11 09:49:01;;;;;;;6.30;4.63;;;;;;;23.56;64.70;102588.66;5006780;28;20030;-64
2022/07/11 09:51:28;;;;;;;6.57;4.80;;;;;;;23.72;63.21;102591.28;5005257;28;20554;-65
2022/07/11 09:53:57;;;;;;;5.07;4.20;;;;;;;23.84;61.84;102595.88;5005627;28;20018;-65
2022/07/11 09:56:42;;;;;;;4.88;4.38;;;;;;;23.41;63.55;102607.50;5006276;28;20032;-62
2022/07/11 09:59:15;;;;;;;5.88;4.28;;;;;;;23.39;63.47;102595.94;5005306;28;20026;-65
2022/07/11 10:01:40;;;;;;;6.45;4.65;;;;;;;23.32;64.34;102599.94;5004461;28;20026;-64
2022/07/11 10:04:07;;;;;;;5.53;4.55;;;;;;;23.26;65.86;102597.66;5005926;28;20481;-64
2022/07/11 10:06:33;;;;;;;9.50;5.30;;;;;;;22.90;65.37;102597.91;5005020;28;20187;-64
2022/07/11 10:08:58;;;;;;;7.78;5.03;;;;;;;22.96;65.55;102594.88;5005925;28;20843;-64
2022/07/11 10:11:23;;;;;;;6.05;4.90;;;;;;;23.11;65.08;102594.91;4991761;28;20631;-64
2022/07/11 10:13:49;;;;;;;9.23;5.00;;;;;;;23.15;65.83;102601.81;4986577;28;20050;-67
2022/07/11 10:16:31;;;;;;;6.78;4.63;;;;;;;23.56;64.34;102596.75;4984960;28;20033;-65
2022/07/11 10:19:07;;;;;;;6.50;4.40;;;;;;;23.91;62.83;102591.00;5004642;28;20029;-66
2022/07/11 10:21:41;;;;;;;5.20;3.83;;;;;;;24.17;61.52;102591.16;5025934;28;20029;-65
2022/07/11 10:24:25;;;;;;;5.93;4.45;;;;;;;24.39;60.09;102594.28;5013128;28;20133;-66
2022/07/11 10:27:03;;;;;;;5.28;3.83;;;;;;;24.27;59.64;102590.56;5004960;28;20105;-64
2022/07/11 10:29:38;;;;;;;9.48;3.97;;;;;;;24.31;60.21;102592.97;5004955;28;20025;-67
2022/07/11 10:32:11;;;;;;;4.10;3.65;;;;;;;24.60;57.91;102592.00;5003270;28;20049;-66
2022/07/11 10:34:37;;;;;;;4.10;3.35;;;;;;;25.45;56.10;102588.09;5006333;28;20058;-65
2022/07/11 10:37:06;;;;;;;6.85;3.40;;;;;;;25.33;57.76;102588.94;5004949;28;20037;-64
2022/07/11 10:39:34;;;;;;;4.47;2.95;;;;;;;25.47;57.19;102594.22;5004780;28;20372;-66
2022/07/11 10:42:01;;;;;;;3.95;2.70;;;;;;;25.39;56.55;102593.91;5005945;28;20025;-63
2022/07/11 10:44:28;;;;;;;3.42;2.55;;;;;;;24.73;57.46;102598.31;5003540;28;20531;-65
2022/07/11 10:46:54;;;;;;;3.60;3.30;;;;;;;24.20;59.83;102599.03;4986593;28;20018;-66
2022/07/11 10:49:48;;;;;;;3.72;3.15;;;;;;;24.57;58.14;102597.59;5004394;28;20119;-66
2022/07/11 10:52:21;;;;;;;4.13;2.92;;;;;;;24.73;57.03;102601.00;5005203;28;20295;-64
2022/07/11 10:55:05;;;;;;;4.30;2.88;;;;;;;24.84;56.41;102596.72;5005498;28;20085;-65
2022/07/11 10:58:05;;;;;;;3.85;3.22;;;;;;;24.86;56.38;102592.06;5004341;28;20499;-64
2022/07/11 11:00:31;;;;;;;3.28;2.92;;;;;;;25.19;57.11;102584.53;4982385;28;20093;-65
2022/07/11 11:03:04;;;;;;;4.82;2.95;;;;;;;24.72;58.51;102585.78;4984851;28;20127;-66
2022/07/11 11:05:52;;;;;;;8.48;3.15;;;;;;;24.89;58.38;102575.72;4984749;28;20045;-66
2022/07/11 11:08:33;;;;;;;5.30;3.22;;;;;;;25.23;58.49;102577.94;4984877;28;20436;-65
2022/07/11 11:11:06;;;;;;;6.05;3.75;;;;;;;24.83;57.60;102581.53;5025218;28;20096;-64
2022/07/11 11:13:35;;;;;;;4.97;3.88;;;;;;;24.99;57.42;102587.59;5023607;28;20053;-64
2022/07/11 11:16:02;;;;;;;5.10;3.53;;;;;;;25.47;55.06;102588.84;5024500;28;20063;-66
2022/07/11 11:18:34;;;;;;;7.38;3.83;;;;;;;25.13;56.01;102588.50;5005588;28;20816;-65
2022/07/11 11:21:02;;;;;;;4.18;3.38;;;;;;;25.59;53.56;102588.97;5004015;28;20061;-64
2022/07/11 11:23:44;;;;;;;4.13;3.53;;;;;;;25.58;51.94;102589.91;5003874;28;20690;-65
2022/07/11 11:26:09;;;;;;;4.20;3.60;;;;;;;25.60;51.50;102585.31;5003689;28;20287;-64
2022/07/11 11:28:35;;;;;;;3.83;3.53;;;;;;;25.32;53.67;102589.94;5004380;28;20416;-65
2022/07/11 11:31:05;;;;;;;4.60;3.58;;;;;;;25.76;52.36;102579.66;5003798;28;20317;-65